Detall de PIREP

Printer-friendly versionPDF version

[2012/06/23 09:06:00]
Flight IATA:CT1004
Pilot Number:042
Company ICAO:CAT
Aircraft Type:F100/A
PAX:42
Aircraft Registration:PFJ
Departing Airport: LERS
Destination Airport: LFMP
Alternate Airport:LEGE
Online: VATSIM
Route:ARBEK DCT REBUL H110 BGR A27 ABIXO KANIG1
Flight Level:F220
No Slew and time accel
No pause
Crash detect
Detect pilot in Cockpit between each 30 and 45 minutes
09:06 Zero fuel Weight: 81827 Lbs, Fuel Weight: 22689 Lbs
09:06 VATSIM:LERS 230800Z 18003KT 080V250 CAVOK 25/09 Q1023
09:06 VATSIM:LFMP 230800Z 32006KT 280V020 CAVOK 24/10 Q1023 NOSIG
09:07 VOICE CATALONIAN/FLAMA DEL CANIGO
09:14 Parking Brakes off
09:20 Take-off
09:20 Take off Weight: 104039 Lbs
09:20 Wind: 177º @ 004 Knots Heading: 247º
09:20 POS N41º 08´ 47´´ E001º 09´ 50´´
09:20 Gear Up: 152 Knots
09:20 Flaps:2 at 152 Knots
09:20 Flaps:1 at 153 Knots
09:20 Flaps:0 at 172 Knots
09:31 TOC
09:31 Fuel Weight: 20643 Lb
09:35 Wind:138º@009 Knots Heading: 080º Ground Speed: 427 Knots Altitude 22286 ft
09:44 TOD
09:44 Fuel Weight: 19381 Lb
09:50 Wind:355º@015 Knots Heading: 035º Ground Speed: 205 Knots Altitude 10639 ft
09:52 Flaps:1 at 188 Knots
09:56 Flaps:2 at 171 Knots
09:56 Gear Down: 171 Knots
09:56 Flaps:3 at 171 Knots
09:59 Flaps:4 at 139 Knots
09:59 TouchDown:Rate -404 ft/min Speed: 110 Knots
10:00 VATSIM:LFMP 230930Z 34006KT 290V030 CAVOK 26/10 Q1023 NOSIG
10:00 Land
10:00 Wind:325º@006 Knots
10:00 Heading: 334º
10:00 Flight Duration: 00:40
10:00 Landing Weight: 100417 Lbs
10:00 POS N42º 45´ 14´´ E002º 51´ 40´´
10:01 Parking brakes on
10:01 Block to Block Duration: 00:47
10:01 Final Fuel: 18529 Lbls
10:01 Spent Fuel: 4160 Lbls
10:01 Flight Length: 199 NM
10:01 TOD Land Length: 56 NM

Exportar CSV

Powered by Drupal - Modified by Danger4k